sensor_id;sensor_type;location;lat;lon;timestamp;P1;durP1;ratioP1;P2;durP2;ratioP2
14992;SDS011;7592;51.088;13.732;2023-02-03T00:01:55;7.80;;;2.30;;
14992;SDS011;7592;51.088;13.732;2023-02-03T00:06:47;5.60;;;2.60;;
14992;SDS011;7592;51.088;13.732;2023-02-03T00:11:39;5.63;;;3.20;;
14992;SDS011;7592;51.088;13.732;2023-02-03T00:16:33;5.63;;;2.90;;
14992;SDS011;7592;51.088;13.732;2023-02-03T00:21:26;7.07;;;2.93;;
14992;SDS011;7592;51.088;13.732;2023-02-03T00:26:19;4.77;;;3.23;;
14992;SDS011;7592;51.088;13.732;2023-02-03T00:31:14;5.53;;;3.10;;
14992;SDS011;7592;51.088;13.732;2023-02-03T00:36:13;6.77;;;3.20;;
14992;SDS011;7592;51.088;13.732;2023-02-03T00:41:06;8.63;;;3.10;;
14992;SDS011;7592;51.088;13.732;2023-02-03T00:45:58;9.07;;;4.37;;
14992;SDS011;7592;51.088;13.732;2023-02-03T00:50:51;8.03;;;3.40;;
14992;SDS011;7592;51.088;13.732;2023-02-03T00:55:45;5.60;;;2.83;;
14992;SDS011;7592;51.088;13.732;2023-02-03T01:00:38;9.27;;;2.83;;
14992;SDS011;7592;51.088;13.732;2023-02-03T01:05:30;5.90;;;2.77;;
14992;SDS011;7592;51.088;13.732;2023-02-03T01:10:23;7.03;;;3.20;;
14992;SDS011;7592;51.088;13.732;2023-02-03T01:15:16;4.80;;;1.90;;
14992;SDS011;7592;51.088;13.732;2023-02-03T01:20:08;4.50;;;2.50;;
14992;SDS011;7592;51.088;13.732;2023-02-03T01:25:02;4.37;;;2.27;;
14992;SDS011;7592;51.088;13.732;2023-02-03T01:29:56;7.37;;;2.23;;
14992;SDS011;7592;51.088;13.732;2023-02-03T01:34:49;6.47;;;2.60;;
14992;SDS011;7592;51.088;13.732;2023-02-03T01:39:41;6.80;;;2.40;;
14992;SDS011;7592;51.088;13.732;2023-02-03T01:49:38;5.70;;;2.07;;
14992;SDS011;7592;51.088;13.732;2023-02-03T01:54:34;3.53;;;1.80;;
14992;SDS011;7592;51.088;13.732;2023-02-03T01:59:31;4.30;;;1.90;;
14992;SDS011;7592;51.088;13.732;2023-02-03T02:04:25;4.63;;;1.80;;
14992;SDS011;7592;51.088;13.732;2023-02-03T02:15:23;5.43;;;2.20;;
14992;SDS011;7592;51.088;13.732;2023-02-03T02:20:35;5.80;;;2.10;;
14992;SDS011;7592;51.088;13.732;2023-02-03T02:42:00;3.10;;;1.47;;
14992;SDS011;7592;51.088;13.732;2023-02-03T02:46:46;3.47;;;1.20;;
14992;SDS011;7592;51.088;13.732;2023-02-03T02:51:50;5.23;;;1.47;;
14992;SDS011;7592;51.088;13.732;2023-02-03T02:56:44;3.50;;;1.30;;
14992;SDS011;7592;51.088;13.732;2023-02-03T03:01:42;4.63;;;1.30;;
14992;SDS011;7592;51.088;13.732;2023-02-03T03:06:35;2.70;;;1.47;;
14992;SDS011;7592;51.088;13.732;2023-02-03T03:11:39;3.37;;;1.50;;
14992;SDS011;7592;51.088;13.732;2023-02-03T03:16:39;2.87;;;1.50;;
14992;SDS011;7592;51.088;13.732;2023-02-03T03:21:37;3.40;;;1.67;;
14992;SDS011;7592;51.088;13.732;2023-02-03T03:26:35;3.37;;;1.43;;
14992;SDS011;7592;51.088;13.732;2023-02-03T03:31:35;3.97;;;1.83;;
14992;SDS011;7592;51.088;13.732;2023-02-03T03:36:28;4.80;;;2.10;;
14992;SDS011;7592;51.088;13.732;2023-02-03T03:41:27;4.83;;;2.53;;
14992;SDS011;7592;51.088;13.732;2023-02-03T03:46:44;3.67;;;1.77;;
14992;SDS011;7592;51.088;13.732;2023-02-03T03:51:49;3.93;;;2.23;;
14992;SDS011;7592;51.088;13.732;2023-02-03T03:56:58;2.83;;;1.93;;
14992;SDS011;7592;51.088;13.732;2023-02-03T04:01:54;2.43;;;2.00;;
14992;SDS011;7592;51.088;13.732;2023-02-03T04:06:47;4.60;;;2.40;;
14992;SDS011;7592;51.088;13.732;2023-02-03T04:11:39;3.20;;;2.47;;
14992;SDS011;7592;51.088;13.732;2023-02-03T04:16:50;4.83;;;2.87;;
14992;SDS011;7592;51.088;13.732;2023-02-03T04:21:42;4.40;;;3.27;;
14992;SDS011;7592;51.088;13.732;2023-02-03T04:26:34;3.83;;;3.47;;
14992;SDS011;7592;51.088;13.732;2023-02-03T04:31:26;4.40;;;4.03;;
14992;SDS011;7592;51.088;13.732;2023-02-03T04:36:18;5.90;;;4.63;;
14992;SDS011;7592;51.088;13.732;2023-02-03T04:41:10;6.77;;;3.77;;
14992;SDS011;7592;51.088;13.732;2023-02-03T04:46:02;5.27;;;4.77;;
14992;SDS011;7592;51.088;13.732;2023-02-03T04:50:54;7.23;;;5.30;;
14992;SDS011;7592;51.088;13.732;2023-02-03T04:55:51;6.37;;;5.77;;
14992;SDS011;7592;51.088;13.732;2023-02-03T05:00:42;5.57;;;4.93;;
14992;SDS011;7592;51.088;13.732;2023-02-03T05:05:35;7.60;;;5.60;;
14992;SDS011;7592;51.088;13.732;2023-02-03T05:10:27;8.73;;;6.30;;
14992;SDS011;7592;51.088;13.732;2023-02-03T05:15:19;6.60;;;6.00;;
14992;SDS011;7592;51.088;13.732;2023-02-03T05:20:12;6.03;;;5.40;;
14992;SDS011;7592;51.088;13.732;2023-02-03T05:25:06;5.80;;;5.30;;
14992;SDS011;7592;51.088;13.732;2023-02-03T05:29:58;6.20;;;5.70;;
14992;SDS011;7592;51.088;13.732;2023-02-03T05:34:50;7.07;;;6.37;;
14992;SDS011;7592;51.088;13.732;2023-02-03T05:39:42;8.43;;;6.73;;
14992;SDS011;7592;51.088;13.732;2023-02-03T05:44:34;9.60;;;7.10;;
14992;SDS011;7592;51.088;13.732;2023-02-03T05:49:26;7.03;;;6.43;;
14992;SDS011;7592;51.088;13.732;2023-02-03T05:54:18;8.97;;;6.57;;
14992;SDS011;7592;51.088;13.732;2023-02-03T05:59:11;7.57;;;6.80;;
14992;SDS011;7592;51.088;13.732;2023-02-03T06:04:04;7.57;;;6.83;;
14992;SDS011;7592;51.088;13.732;2023-02-03T06:08:56;7.53;;;6.83;;
14992;SDS011;7592;51.088;13.732;2023-02-03T06:13:49;6.67;;;5.97;;
14992;SDS011;7592;51.088;13.732;2023-02-03T06:18:42;8.50;;;6.50;;
14992;SDS011;7592;51.088;13.732;2023-02-03T06:23:34;7.87;;;7.00;;
14992;SDS011;7592;51.088;13.732;2023-02-03T06:28:26;7.27;;;6.60;;
14992;SDS011;7592;51.088;13.732;2023-02-03T06:33:18;7.17;;;6.37;;
14992;SDS011;7592;51.088;13.732;2023-02-03T06:38:11;6.50;;;5.90;;
14992;SDS011;7592;51.088;13.732;2023-02-03T06:43:03;8.37;;;6.70;;
14992;SDS011;7592;51.088;13.732;2023-02-03T06:47:55;5.33;;;4.93;;
14992;SDS011;7592;51.088;13.732;2023-02-03T06:52:48;6.33;;;5.40;;
14992;SDS011;7592;51.088;13.732;2023-02-03T06:57:43;6.43;;;5.83;;
14992;SDS011;7592;51.088;13.732;2023-02-03T07:02:37;6.57;;;5.97;;
14992;SDS011;7592;51.088;13.732;2023-02-03T07:07:29;6.30;;;5.60;;
14992;SDS011;7592;51.088;13.732;2023-02-03T07:12:22;6.80;;;6.10;;
14992;SDS011;7592;51.088;13.732;2023-02-03T07:17:16;6.27;;;5.67;;
14992;SDS011;7592;51.088;13.732;2023-02-03T07:22:09;6.23;;;5.63;;
14992;SDS011;7592;51.088;13.732;2023-02-03T07:27:01;5.67;;;5.07;;
14992;SDS011;7592;51.088;13.732;2023-02-03T07:31:55;5.43;;;4.93;;
14992;SDS011;7592;51.088;13.732;2023-02-03T07:36:47;5.93;;;4.40;;
14992;SDS011;7592;51.088;13.732;2023-02-03T07:41:40;6.10;;;3.60;;
14992;SDS011;7592;51.088;13.732;2023-02-03T07:46:32;5.50;;;4.07;;
14992;SDS011;7592;51.088;13.732;2023-02-03T07:51:24;4.40;;;3.73;;
14992;SDS011;7592;51.088;13.732;2023-02-03T07:56:17;3.70;;;3.37;;
14992;SDS011;7592;51.088;13.732;2023-02-03T08:01:10;4.90;;;3.20;;
14992;SDS011;7592;51.088;13.732;2023-02-03T08:06:04;6.53;;;3.80;;
14992;SDS011;7592;51.088;13.732;2023-02-03T08:10:56;5.67;;;4.13;;
14992;SDS011;7592;51.088;13.732;2023-02-03T08:15:49;3.90;;;3.40;;
14992;SDS011;7592;51.088;13.732;2023-02-03T08:20:41;4.53;;;2.90;;
14992;SDS011;7592;51.088;13.732;2023-02-03T08:25:33;3.87;;;2.47;;
14992;SDS011;7592;51.088;13.732;2023-02-03T08:30:25;4.63;;;3.30;;
14992;SDS011;7592;51.088;13.732;2023-02-03T08:35:18;3.20;;;2.80;;
14992;SDS011;7592;51.088;13.732;2023-02-03T08:40:10;4.27;;;2.93;;
14992;SDS011;7592;51.088;13.732;2023-02-03T08:45:03;3.37;;;2.50;;
14992;SDS011;7592;51.088;13.732;2023-02-03T08:49:56;2.97;;;2.77;;
14992;SDS011;7592;51.088;13.732;2023-02-03T08:54:48;3.03;;;2.60;;
14992;SDS011;7592;51.088;13.732;2023-02-03T08:59:42;3.47;;;2.63;;
14992;SDS011;7592;51.088;13.732;2023-02-03T09:04:34;2.60;;;2.23;;
14992;SDS011;7592;51.088;13.732;2023-02-03T09:09:26;3.23;;;2.50;;
14992;SDS011;7592;51.088;13.732;2023-02-03T09:14:19;3.60;;;2.90;;
14992;SDS011;7592;51.088;13.732;2023-02-03T09:19:11;3.40;;;2.83;;
14992;SDS011;7592;51.088;13.732;2023-02-03T09:24:04;3.47;;;2.57;;
14992;SDS011;7592;51.088;13.732;2023-02-03T09:28:56;4.87;;;2.90;;
14992;SDS011;7592;51.088;13.732;2023-02-03T09:33:48;5.57;;;3.40;;
14992;SDS011;7592;51.088;13.732;2023-02-03T09:38:40;3.47;;;3.17;;
14992;SDS011;7592;51.088;13.732;2023-02-03T09:48:31;3.93;;;3.17;;
14992;SDS011;7592;51.088;13.732;2023-02-03T09:53:35;5.10;;;3.40;;
14992;SDS011;7592;51.088;13.732;2023-02-03T09:58:35;8.43;;;3.70;;
14992;SDS011;7592;51.088;13.732;2023-02-03T10:03:31;4.37;;;3.97;;
14992;SDS011;7592;51.088;13.732;2023-02-03T10:18:47;6.50;;;3.10;;
14992;SDS011;7592;51.088;13.732;2023-02-03T10:23:44;4.83;;;3.40;;
14992;SDS011;7592;51.088;13.732;2023-02-03T10:28:40;4.93;;;2.67;;
14992;SDS011;7592;51.088;13.732;2023-02-03T10:33:46;4.20;;;2.33;;
14992;SDS011;7592;51.088;13.732;2023-02-03T10:38:49;5.73;;;2.90;;
14992;SDS011;7592;51.088;13.732;2023-02-03T10:43:51;8.40;;;3.33;;
14992;SDS011;7592;51.088;13.732;2023-02-03T10:48:46;5.37;;;3.20;;
14992;SDS011;7592;51.088;13.732;2023-02-03T10:53:39;3.13;;;2.50;;
14992;SDS011;7592;51.088;13.732;2023-02-03T10:58:31;4.87;;;3.23;;
14992;SDS011;7592;51.088;13.732;2023-02-03T11:03:25;3.43;;;2.47;;
14992;SDS011;7592;51.088;13.732;2023-02-03T11:08:25;3.47;;;2.77;;
14992;SDS011;7592;51.088;13.732;2023-02-03T11:13:22;2.63;;;2.30;;
14992;SDS011;7592;51.088;13.732;2023-02-03T11:23:31;3.57;;;2.30;;
14992;SDS011;7592;51.088;13.732;2023-02-03T11:28:24;6.33;;;2.70;;
14992;SDS011;7592;51.088;13.732;2023-02-03T11:33:19;2.23;;;2.03;;
14992;SDS011;7592;51.088;13.732;2023-02-03T11:38:27;3.60;;;2.33;;
14992;SDS011;7592;51.088;13.732;2023-02-03T11:43:21;2.40;;;2.20;;
14992;SDS011;7592;51.088;13.732;2023-02-03T11:48:35;4.17;;;1.90;;
14992;SDS011;7592;51.088;13.732;2023-02-03T12:24:39;1.23;;;1.17;;
14992;SDS011;7592;51.088;13.732;2023-02-03T12:29:46;1.30;;;1.03;;
14992;SDS011;7592;51.088;13.732;2023-02-03T12:34:53;3.43;;;1.40;;
14992;SDS011;7592;51.088;13.732;2023-02-03T12:39:54;3.57;;;3.27;;
14992;SDS011;7592;51.088;13.732;2023-02-03T12:44:53;1.00;;;0.90;;
14992;SDS011;7592;51.088;13.732;2023-02-03T12:50:06;1.23;;;0.70;;
14992;SDS011;7592;51.088;13.732;2023-02-03T12:55:33;20.17;;;6.87;;
14992;SDS011;7592;51.088;13.732;2023-02-03T13:00:33;3.23;;;1.23;;
14992;SDS011;7592;51.088;13.732;2023-02-03T13:05:40;0.90;;;0.90;;
14992;SDS011;7592;51.088;13.732;2023-02-03T13:10:38;5.63;;;2.60;;
14992;SDS011;7592;51.088;13.732;2023-02-03T13:15:41;13.30;;;5.07;;
14992;SDS011;7592;51.088;13.732;2023-02-03T13:20:36;7.20;;;2.50;;
14992;SDS011;7592;51.088;13.732;2023-02-03T13:25:39;20.37;;;5.93;;
14992;SDS011;7592;51.088;13.732;2023-02-03T13:35:55;10.63;;;2.73;;
14992;SDS011;7592;51.088;13.732;2023-02-03T13:45:57;8.30;;;2.33;;
14992;SDS011;7592;51.088;13.732;2023-02-03T13:50:50;19.20;;;4.40;;
14992;SDS011;7592;51.088;13.732;2023-02-03T13:56:06;19.57;;;2.60;;
14992;SDS011;7592;51.088;13.732;2023-02-03T14:01:43;9.47;;;2.10;;
14992;SDS011;7592;51.088;13.732;2023-02-03T14:16:34;30.43;;;7.13;;
14992;SDS011;7592;51.088;13.732;2023-02-03T14:21:28;11.03;;;2.57;;
14992;SDS011;7592;51.088;13.732;2023-02-03T14:26:40;8.27;;;2.20;;
14992;SDS011;7592;51.088;13.732;2023-02-03T14:31:51;13.47;;;2.70;;
14992;SDS011;7592;51.088;13.732;2023-02-03T14:36:52;13.20;;;2.73;;
14992;SDS011;7592;51.088;13.732;2023-02-03T14:41:51;9.63;;;2.50;;
14992;SDS011;7592;51.088;13.732;2023-02-03T14:46:56;14.03;;;3.27;;
14992;SDS011;7592;51.088;13.732;2023-02-03T15:07:05;11.33;;;2.83;;
14992;SDS011;7592;51.088;13.732;2023-02-03T15:11:58;13.67;;;4.13;;
14992;SDS011;7592;51.088;13.732;2023-02-03T15:16:57;16.73;;;3.70;;
14992;SDS011;7592;51.088;13.732;2023-02-03T15:22:22;13.63;;;2.73;;
14992;SDS011;7592;51.088;13.732;2023-02-03T15:27:27;15.00;;;3.27;;
14992;SDS011;7592;51.088;13.732;2023-02-03T15:32:25;13.20;;;2.60;;
14992;SDS011;7592;51.088;13.732;2023-02-03T15:42:31;12.90;;;3.63;;
14992;SDS011;7592;51.088;13.732;2023-02-03T15:47:31;12.67;;;2.67;;
14992;SDS011;7592;51.088;13.732;2023-02-03T15:52:29;13.93;;;2.40;;
14992;SDS011;7592;51.088;13.732;2023-02-03T15:57:24;14.10;;;3.67;;
14992;SDS011;7592;51.088;13.732;2023-02-03T16:02:20;20.53;;;4.10;;
14992;SDS011;7592;51.088;13.732;2023-02-03T16:07:27;16.00;;;4.30;;
14992;SDS011;7592;51.088;13.732;2023-02-03T16:12:21;14.37;;;3.53;;
14992;SDS011;7592;51.088;13.732;2023-02-03T16:17:22;16.97;;;3.43;;
14992;SDS011;7592;51.088;13.732;2023-02-03T16:22:34;15.40;;;2.97;;
14992;SDS011;7592;51.088;13.732;2023-02-03T16:27:31;12.30;;;2.87;;
14992;SDS011;7592;51.088;13.732;2023-02-03T16:32:24;20.93;;;4.17;;
14992;SDS011;7592;51.088;13.732;2023-02-03T16:37:41;15.50;;;3.30;;
14992;SDS011;7592;51.088;13.732;2023-02-03T16:42:53;15.80;;;3.03;;
14992;SDS011;7592;51.088;13.732;2023-02-03T16:48:03;13.73;;;3.10;;
14992;SDS011;7592;51.088;13.732;2023-02-03T16:53:15;14.17;;;3.50;;
14992;SDS011;7592;51.088;13.732;2023-02-03T16:58:10;11.70;;;2.83;;
14992;SDS011;7592;51.088;13.732;2023-02-03T17:03:03;10.00;;;2.73;;
14992;SDS011;7592;51.088;13.732;2023-02-03T17:07:55;13.30;;;3.87;;
14992;SDS011;7592;51.088;13.732;2023-02-03T17:12:47;15.67;;;3.23;;
14992;SDS011;7592;51.088;13.732;2023-02-03T17:17:42;16.03;;;3.13;;
14992;SDS011;7592;51.088;13.732;2023-02-03T17:22:34;9.03;;;2.53;;
14992;SDS011;7592;51.088;13.732;2023-02-03T17:27:26;15.57;;;3.43;;
14992;SDS011;7592;51.088;13.732;2023-02-03T17:32:18;15.40;;;3.30;;
14992;SDS011;7592;51.088;13.732;2023-02-03T17:37:10;15.00;;;3.33;;
14992;SDS011;7592;51.088;13.732;2023-02-03T17:42:02;13.23;;;3.17;;
14992;SDS011;7592;51.088;13.732;2023-02-03T17:47:12;10.37;;;2.63;;
14992;SDS011;7592;51.088;13.732;2023-02-03T17:52:21;12.97;;;3.37;;
14992;SDS011;7592;51.088;13.732;2023-02-03T17:57:35;12.00;;;2.57;;
14992;SDS011;7592;51.088;13.732;2023-02-03T18:02:27;17.33;;;3.53;;
14992;SDS011;7592;51.088;13.732;2023-02-03T18:07:20;10.63;;;2.83;;
14992;SDS011;7592;51.088;13.732;2023-02-03T18:12:12;9.17;;;2.87;;
14992;SDS011;7592;51.088;13.732;2023-02-03T18:17:04;10.63;;;3.80;;
14992;SDS011;7592;51.088;13.732;2023-02-03T18:21:56;12.53;;;3.60;;
14992;SDS011;7592;51.088;13.732;2023-02-03T18:26:50;10.03;;;3.70;;
14992;SDS011;7592;51.088;13.732;2023-02-03T18:31:42;14.00;;;3.00;;
14992;SDS011;7592;51.088;13.732;2023-02-03T18:36:34;14.93;;;3.10;;
14992;SDS011;7592;51.088;13.732;2023-02-03T18:41:26;19.70;;;4.03;;
14992;SDS011;7592;51.088;13.732;2023-02-03T18:46:20;15.40;;;4.03;;
14992;SDS011;7592;51.088;13.732;2023-02-03T18:51:15;15.20;;;2.97;;
14992;SDS011;7592;51.088;13.732;2023-02-03T18:56:09;15.00;;;3.87;;
14992;SDS011;7592;51.088;13.732;2023-02-03T19:01:06;13.60;;;3.47;;
14992;SDS011;7592;51.088;13.732;2023-02-03T19:05:58;16.47;;;3.63;;
14992;SDS011;7592;51.088;13.732;2023-02-03T19:10:51;12.80;;;3.23;;
14992;SDS011;7592;51.088;13.732;2023-02-03T19:15:47;14.20;;;3.37;;
14992;SDS011;7592;51.088;13.732;2023-02-03T19:20:42;17.70;;;3.13;;
14992;SDS011;7592;51.088;13.732;2023-02-03T19:25:34;14.27;;;2.97;;
14992;SDS011;7592;51.088;13.732;2023-02-03T19:30:26;11.60;;;3.13;;
14992;SDS011;7592;51.088;13.732;2023-02-03T19:35:19;16.27;;;3.10;;
14992;SDS011;7592;51.088;13.732;2023-02-03T19:40:11;13.80;;;3.63;;
14992;SDS011;7592;51.088;13.732;2023-02-03T19:45:04;15.27;;;2.80;;
14992;SDS011;7592;51.088;13.732;2023-02-03T19:49:56;17.20;;;3.47;;
14992;SDS011;7592;51.088;13.732;2023-02-03T19:54:48;33.50;;;9.17;;
14992;SDS011;7592;51.088;13.732;2023-02-03T19:59:44;13.10;;;2.80;;
14992;SDS011;7592;51.088;13.732;2023-02-03T20:04:36;18.00;;;2.93;;
14992;SDS011;7592;51.088;13.732;2023-02-03T20:09:28;17.43;;;3.33;;
14992;SDS011;7592;51.088;13.732;2023-02-03T20:14:20;17.97;;;2.80;;
14992;SDS011;7592;51.088;13.732;2023-02-03T20:19:12;17.10;;;3.57;;
14992;SDS011;7592;51.088;13.732;2023-02-03T20:24:04;14.57;;;3.20;;
14992;SDS011;7592;51.088;13.732;2023-02-03T20:28:56;16.10;;;3.93;;
14992;SDS011;7592;51.088;13.732;2023-02-03T20:33:48;8.97;;;2.67;;
14992;SDS011;7592;51.088;13.732;2023-02-03T20:38:41;13.83;;;2.73;;
14992;SDS011;7592;51.088;13.732;2023-02-03T20:43:33;11.67;;;2.67;;
14992;SDS011;7592;51.088;13.732;2023-02-03T20:48:25;19.10;;;3.40;;
14992;SDS011;7592;51.088;13.732;2023-02-03T20:58:29;16.33;;;3.33;;
14992;SDS011;7592;51.088;13.732;2023-02-03T21:03:25;10.90;;;2.80;;
14992;SDS011;7592;51.088;13.732;2023-02-03T21:08:35;20.73;;;3.57;;
14992;SDS011;7592;51.088;13.732;2023-02-03T21:13:28;20.57;;;3.37;;
14992;SDS011;7592;51.088;13.732;2023-02-03T21:23:25;13.33;;;3.00;;
14992;SDS011;7592;51.088;13.732;2023-02-03T21:28:30;14.70;;;3.20;;
14992;SDS011;7592;51.088;13.732;2023-02-03T21:33:38;20.80;;;4.60;;
14992;SDS011;7592;51.088;13.732;2023-02-03T21:38:32;19.83;;;4.80;;
14992;SDS011;7592;51.088;13.732;2023-02-03T21:43:24;16.93;;;3.37;;
14992;SDS011;7592;51.088;13.732;2023-02-03T21:58:25;15.67;;;4.13;;
14992;SDS011;7592;51.088;13.732;2023-02-03T22:03:24;10.17;;;3.43;;
14992;SDS011;7592;51.088;13.732;2023-02-03T22:08:17;16.70;;;2.97;;
14992;SDS011;7592;51.088;13.732;2023-02-03T22:13:13;12.50;;;2.87;;
14992;SDS011;7592;51.088;13.732;2023-02-03T22:18:06;16.40;;;3.37;;
14992;SDS011;7592;51.088;13.732;2023-02-03T22:22:58;11.27;;;2.70;;
14992;SDS011;7592;51.088;13.732;2023-02-03T22:27:50;13.53;;;3.70;;
14992;SDS011;7592;51.088;13.732;2023-02-03T22:32:43;30.23;;;6.77;;
14992;SDS011;7592;51.088;13.732;2023-02-03T22:37:35;15.87;;;3.10;;
14992;SDS011;7592;51.088;13.732;2023-02-03T22:42:27;19.10;;;3.70;;
14992;SDS011;7592;51.088;13.732;2023-02-03T22:47:20;13.70;;;3.00;;
14992;SDS011;7592;51.088;13.732;2023-02-03T22:52:14;10.10;;;2.73;;
14992;SDS011;7592;51.088;13.732;2023-02-03T22:57:06;9.00;;;2.43;;
14992;SDS011;7592;51.088;13.732;2023-02-03T23:01:58;14.13;;;2.70;;
14992;SDS011;7592;51.088;13.732;2023-02-03T23:06:50;11.67;;;3.57;;
14992;SDS011;7592;51.088;13.732;2023-02-03T23:11:42;15.77;;;3.00;;
14992;SDS011;7592;51.088;13.732;2023-02-03T23:16:38;17.03;;;6.13;;
14992;SDS011;7592;51.088;13.732;2023-02-03T23:21:30;11.70;;;2.43;;
14992;SDS011;7592;51.088;13.732;2023-02-03T23:26:22;9.67;;;3.70;;
14992;SDS011;7592;51.088;13.732;2023-02-03T23:31:14;10.70;;;2.80;;
14992;SDS011;7592;51.088;13.732;2023-02-03T23:36:07;13.77;;;2.90;;
14992;SDS011;7592;51.088;13.732;2023-02-03T23:40:59;13.87;;;3.00;;
14992;SDS011;7592;51.088;13.732;2023-02-03T23:45:52;14.20;;;3.13;;
14992;SDS011;7592;51.088;13.732;2023-02-03T23:50:44;9.77;;;2.37;;
14992;SDS011;7592;51.088;13.732;2023-02-03T23:55:36;38.13;;;9.73;;
